Terminal Aerodrome Forecast
Issued by NWS Portland, ME

Home | Current Version | Previous Version | Text Only | Print | Product List | Glossary On
Versions: 1 2 3 4 5 6 7 8 9 10 11 12 13 14 15 16 17 18 19 20 21 22 23 24 25 26 27 28 29 30 31 32 33 34 35
382
FTUS41 KGYX 180929 AAA
TAFCON
TAF AMD
KCON 180929Z 1809/1906 32005KT P6SM SKC
     FM181600 13004KT P6SM BKN250
     FM190100 VRB03KT 4SM -RA OVC035
     FM190200 VRB03KT 4SM -RA BR OVC015=

USA.gov is the U.S. government's official web portal to all federal, state and local government web resources and services.